sensor_id;sensor_type;location;lat;lon;timestamp;temperature;humidity
35680;DHT22;21803;53.586;10.040;2023-04-24T04:01:50;20.50;46.40
35680;DHT22;21803;53.586;10.040;2023-04-24T04:04:15;21.00;46.60
35680;DHT22;21803;53.586;10.040;2023-04-24T04:06:41;20.40;46.30
35680;DHT22;21803;53.586;10.040;2023-04-24T04:09:07;20.50;46.30
35680;DHT22;21803;53.586;10.040;2023-04-24T04:11:33;20.40;46.30
35680;DHT22;21803;53.586;10.040;2023-04-24T04:14:00;20.40;46.30
35680;DHT22;21803;53.586;10.040;2023-04-24T04:16:26;23.40;47.80
35680;DHT22;21803;53.586;10.040;2023-04-24T04:18:51;20.90;46.50
35680;DHT22;21803;53.586;10.040;2023-04-24T04:21:17;20.70;46.40
35680;DHT22;21803;53.586;10.040;2023-04-24T04:23:42;21.20;46.70
35680;DHT22;21803;53.586;10.040;2023-04-24T04:26:08;20.40;46.30
35680;DHT22;21803;53.586;10.040;2023-04-24T04:28:33;20.40;46.30
35680;DHT22;21803;53.586;10.040;2023-04-24T04:31:00;20.50;46.30
35680;DHT22;21803;53.586;10.040;2023-04-24T04:33:26;20.40;46.20
35680;DHT22;21803;53.586;10.040;2023-04-24T04:35:52;20.50;46.30
35680;DHT22;21803;53.586;10.040;2023-04-24T04:38:18;20.50;46.30
35680;DHT22;21803;53.586;10.040;2023-04-24T04:40:45;20.50;46.20
35680;DHT22;21803;53.586;10.040;2023-04-24T04:43:11;20.50;46.20
35680;DHT22;21803;53.586;10.040;2023-04-24T04:45:37;20.50;46.20
35680;DHT22;21803;53.586;10.040;2023-04-24T04:48:04;20.50;46.10
35680;DHT22;21803;53.586;10.040;2023-04-24T04:50:31;20.50;46.20
35680;DHT22;21803;53.586;10.040;2023-04-24T04:52:56;20.60;46.10
35680;DHT22;21803;53.586;10.040;2023-04-24T04:55:22;20.50;46.10
35680;DHT22;21803;53.586;10.040;2023-04-24T04:57:47;20.60;46.00
35680;DHT22;21803;53.586;10.040;2023-04-24T05:00:13;20.60;46.00
35680;DHT22;21803;53.586;10.040;2023-04-24T05:02:39;20.60;45.90
35680;DHT22;21803;53.586;10.040;2023-04-24T05:05:06;20.60;45.90
35680;DHT22;21803;53.586;10.040;2023-04-24T05:07:31;20.60;45.80
35680;DHT22;21803;53.586;10.040;2023-04-24T05:09:57;20.70;45.80
35680;DHT22;21803;53.586;10.040;2023-04-24T05:12:22;20.70;45.80
35680;DHT22;21803;53.586;10.040;2023-04-24T05:14:48;20.70;45.80
35680;DHT22;21803;53.586;10.040;2023-04-24T05:17:14;20.70;45.80
35680;DHT22;21803;53.586;10.040;2023-04-24T05:19:40;20.70;45.70
35680;DHT22;21803;53.586;10.040;2023-04-24T05:22:05;20.70;45.70
35680;DHT22;21803;53.586;10.040;2023-04-24T05:24:35;20.70;45.70
35680;DHT22;21803;53.586;10.040;2023-04-24T05:27:04;20.80;45.80
35680;DHT22;21803;53.586;10.040;2023-04-24T05:29:30;20.70;45.80
35680;DHT22;21803;53.586;10.040;2023-04-24T05:31:57;20.80;45.90
35680;DHT22;21803;53.586;10.040;2023-04-24T05:34:22;20.80;45.90
35680;DHT22;21803;53.586;10.040;2023-04-24T05:36:48;20.80;45.90
35680;DHT22;21803;53.586;10.040;2023-04-24T05:39:14;20.80;46.00
35680;DHT22;21803;53.586;10.040;2023-04-24T05:41:40;20.80;46.00
35680;DHT22;21803;53.586;10.040;2023-04-24T05:44:06;20.80;46.10
35680;DHT22;21803;53.586;10.040;2023-04-24T05:46:31;20.90;46.20
35680;DHT22;21803;53.586;10.040;2023-04-24T05:48:57;20.90;46.20
35680;DHT22;21803;53.586;10.040;2023-04-24T05:51:23;20.90;46.20
35680;DHT22;21803;53.586;10.040;2023-04-24T05:53:49;20.90;46.30
35680;DHT22;21803;53.586;10.040;2023-04-24T05:56:15;20.90;46.30
35680;DHT22;21803;53.586;10.040;2023-04-24T05:58:41;21.00;46.40
35680;DHT22;21803;53.586;10.040;2023-04-24T06:01:06;20.90;46.40
35680;DHT22;21803;53.586;10.040;2023-04-24T06:03:32;21.00;46.40
35680;DHT22;21803;53.586;10.040;2023-04-24T06:05:58;21.00;46.40
35680;DHT22;21803;53.586;10.040;2023-04-24T06:08:23;21.00;46.40
35680;DHT22;21803;53.586;10.040;2023-04-24T06:10:49;21.00;46.40
35680;DHT22;21803;53.586;10.040;2023-04-24T06:13:15;21.00;46.40
35680;DHT22;21803;53.586;10.040;2023-04-24T06:15:41;21.00;46.40
35680;DHT22;21803;53.586;10.040;2023-04-24T06:18:06;21.10;46.40
35680;DHT22;21803;53.586;10.040;2023-04-24T06:20:32;21.10;46.40
35680;DHT22;21803;53.586;10.040;2023-04-24T06:22:58;21.10;46.30
35680;DHT22;21803;53.586;10.040;2023-04-24T06:25:25;21.10;46.30
35680;DHT22;21803;53.586;10.040;2023-04-24T06:27:52;21.10;46.30
35680;DHT22;21803;53.586;10.040;2023-04-24T06:30:17;21.10;46.20
35680;DHT22;21803;53.586;10.040;2023-04-24T06:32:43;21.20;46.20
35680;DHT22;21803;53.586;10.040;2023-04-24T06:35:08;21.10;46.20
35680;DHT22;21803;53.586;10.040;2023-04-24T06:37:35;21.20;46.20
35680;DHT22;21803;53.586;10.040;2023-04-24T06:40:01;21.10;46.80
35680;DHT22;21803;53.586;10.040;2023-04-24T06:42:26;21.20;46.20
35680;DHT22;21803;53.586;10.040;2023-04-24T06:44:52;21.10;46.10
35680;DHT22;21803;53.586;10.040;2023-04-24T06:47:18;21.10;46.10
35680;DHT22;21803;53.586;10.040;2023-04-24T06:49:44;21.10;46.10
35680;DHT22;21803;53.586;10.040;2023-04-24T06:52:09;21.10;46.10
35680;DHT22;21803;53.586;10.040;2023-04-24T06:54:35;21.10;46.00
35680;DHT22;21803;53.586;10.040;2023-04-24T06:57:00;21.10;46.70
35680;DHT22;21803;53.586;10.040;2023-04-24T06:59:27;21.10;46.10
35680;DHT22;21803;53.586;10.040;2023-04-24T07:01:53;21.10;46.00
35680;DHT22;21803;53.586;10.040;2023-04-24T07:04:19;21.10;46.00
35680;DHT22;21803;53.586;10.040;2023-04-24T07:06:47;21.10;46.00
35680;DHT22;21803;53.586;10.040;2023-04-24T07:09:14;21.00;46.00
35680;DHT22;21803;53.586;10.040;2023-04-24T07:11:41;21.10;46.00
35680;DHT22;21803;53.586;10.040;2023-04-24T07:14:07;21.00;46.00
35680;DHT22;21803;53.586;10.040;2023-04-24T07:16:33;21.00;46.00
35680;DHT22;21803;53.586;10.040;2023-04-24T07:18:58;21.00;46.00
35680;DHT22;21803;53.586;10.040;2023-04-24T07:21:24;21.00;46.00
35680;DHT22;21803;53.586;10.040;2023-04-24T07:23:50;21.00;46.00
35680;DHT22;21803;53.586;10.040;2023-04-24T07:26:16;21.00;46.00
35680;DHT22;21803;53.586;10.040;2023-04-24T07:28:42;21.00;46.00
35680;DHT22;21803;53.586;10.040;2023-04-24T07:31:08;21.00;46.00
35680;DHT22;21803;53.586;10.040;2023-04-24T07:33:33;21.00;46.00
35680;DHT22;21803;53.586;10.040;2023-04-24T07:35:59;21.00;45.90
35680;DHT22;21803;53.586;10.040;2023-04-24T07:38:25;21.00;45.90
35680;DHT22;21803;53.586;10.040;2023-04-24T07:40:51;21.00;45.90
35680;DHT22;21803;53.586;10.040;2023-04-24T07:43:17;21.00;45.90
35680;DHT22;21803;53.586;10.040;2023-04-24T07:45:43;21.00;45.90
35680;DHT22;21803;53.586;10.040;2023-04-24T07:48:09;21.00;45.90
35680;DHT22;21803;53.586;10.040;2023-04-24T07:50:35;21.00;45.90
35680;DHT22;21803;53.586;10.040;2023-04-24T07:53:01;20.90;45.90
35680;DHT22;21803;53.586;10.040;2023-04-24T07:55:27;20.90;45.90
35680;DHT22;21803;53.586;10.040;2023-04-24T07:57:52;20.90;45.90
35680;DHT22;21803;53.586;10.040;2023-04-24T08:00:18;20.90;45.80
35680;DHT22;21803;53.586;10.040;2023-04-24T08:02:44;20.90;45.80
35680;DHT22;21803;53.586;10.040;2023-04-24T08:05:09;20.90;45.90
35680;DHT22;21803;53.586;10.040;2023-04-24T08:07:35;20.90;45.90
35680;DHT22;21803;53.586;10.040;2023-04-24T08:10:01;20.90;45.90
35680;DHT22;21803;53.586;10.040;2023-04-24T08:12:28;20.90;45.80
35680;DHT22;21803;53.586;10.040;2023-04-24T08:14:54;20.90;45.80
35680;DHT22;21803;53.586;10.040;2023-04-24T08:17:20;20.90;45.90
35680;DHT22;21803;53.586;10.040;2023-04-24T08:19:45;20.90;45.80
35680;DHT22;21803;53.586;10.040;2023-04-24T08:22:14;20.90;45.80
35680;DHT22;21803;53.586;10.040;2023-04-24T08:24:39;20.90;45.90
35680;DHT22;21803;53.586;10.040;2023-04-24T08:27:05;20.90;45.80
35680;DHT22;21803;53.586;10.040;2023-04-24T08:29:30;20.90;45.80
35680;DHT22;21803;53.586;10.040;2023-04-24T08:31:56;20.90;45.80
35680;DHT22;21803;53.586;10.040;2023-04-24T08:34:22;20.90;45.80
35680;DHT22;21803;53.586;10.040;2023-04-24T08:36:47;20.90;45.80
35680;DHT22;21803;53.586;10.040;2023-04-24T08:39:13;20.80;45.80
35680;DHT22;21803;53.586;10.040;2023-04-24T08:41:41;20.80;45.80
35680;DHT22;21803;53.586;10.040;2023-04-24T08:44:09;20.80;45.80
35680;DHT22;21803;53.586;10.040;2023-04-24T08:46:35;20.80;45.80
35680;DHT22;21803;53.586;10.040;2023-04-24T08:49:02;20.80;45.80
35680;DHT22;21803;53.586;10.040;2023-04-24T08:51:29;20.80;45.80
35680;DHT22;21803;53.586;10.040;2023-04-24T08:53:57;20.90;45.90
35680;DHT22;21803;53.586;10.040;2023-04-24T08:56:23;20.80;45.80
35680;DHT22;21803;53.586;10.040;2023-04-24T08:58:53;20.80;45.80
35680;DHT22;21803;53.586;10.040;2023-04-24T09:01:23;20.80;45.80
35680;DHT22;21803;53.586;10.040;2023-04-24T09:03:50;20.80;45.80
35680;DHT22;21803;53.586;10.040;2023-04-24T09:06:18;20.80;45.80
35680;DHT22;21803;53.586;10.040;2023-04-24T09:08:45;20.80;45.80
35680;DHT22;21803;53.586;10.040;2023-04-24T09:11:12;20.80;45.80
35680;DHT22;21803;53.586;10.040;2023-04-24T09:13:37;20.80;45.80
35680;DHT22;21803;53.586;10.040;2023-04-24T09:16:03;20.80;45.80
35680;DHT22;21803;53.586;10.040;2023-04-24T09:18:29;20.80;45.80
35680;DHT22;21803;53.586;10.040;2023-04-24T09:21:01;20.80;45.80
35680;DHT22;21803;53.586;10.040;2023-04-24T09:23:29;20.80;45.80
35680;DHT22;21803;53.586;10.040;2023-04-24T09:25:56;20.80;45.80
35680;DHT22;21803;53.586;10.040;2023-04-24T09:28:32;20.80;45.80
35680;DHT22;21803;53.586;10.040;2023-04-24T09:33:29;20.80;45.70
35680;DHT22;21803;53.586;10.040;2023-04-24T09:35:55;20.80;45.70
35680;DHT22;21803;53.586;10.040;2023-04-24T09:38:34;20.80;45.70
35680;DHT22;21803;53.586;10.040;2023-04-24T09:41:02;20.80;45.60
35680;DHT22;21803;53.586;10.040;2023-04-24T09:43:29;20.80;45.70
35680;DHT22;21803;53.586;10.040;2023-04-24T09:45:56;20.80;45.60
35680;DHT22;21803;53.586;10.040;2023-04-24T09:48:33;20.90;45.70
35680;DHT22;21803;53.586;10.040;2023-04-24T09:51:00;20.80;45.60
35680;DHT22;21803;53.586;10.040;2023-04-24T09:53:27;20.80;45.60
35680;DHT22;21803;53.586;10.040;2023-04-24T09:55:53;20.80;45.50
35680;DHT22;21803;53.586;10.040;2023-04-24T09:58:24;20.80;45.50
35680;DHT22;21803;53.586;10.040;2023-04-24T10:00:53;20.80;45.50
35680;DHT22;21803;53.586;10.040;2023-04-24T10:03:20;20.80;45.50
35680;DHT22;21803;53.586;10.040;2023-04-24T10:05:46;20.90;45.60
35680;DHT22;21803;53.586;10.040;2023-04-24T10:08:13;20.80;45.50
35680;DHT22;21803;53.586;10.040;2023-04-24T10:10:40;20.80;45.50
35680;DHT22;21803;53.586;10.040;2023-04-24T10:13:08;20.80;45.50
35680;DHT22;21803;53.586;10.040;2023-04-24T10:15:34;20.80;45.40
35680;DHT22;21803;53.586;10.040;2023-04-24T10:18:00;22.80;46.50
35680;DHT22;21803;53.586;10.040;2023-04-24T10:20:28;22.30;46.10
35680;DHT22;21803;53.586;10.040;2023-04-24T10:22:55;20.80;45.40
35680;DHT22;21803;53.586;10.040;2023-04-24T10:25:23;20.80;45.50
35680;DHT22;21803;53.586;10.040;2023-04-24T10:27:50;20.80;45.40
35680;DHT22;21803;53.586;10.040;2023-04-24T10:30:17;20.80;45.40
35680;DHT22;21803;53.586;10.040;2023-04-24T10:32:43;20.80;45.40
35680;DHT22;21803;53.586;10.040;2023-04-24T10:35:10;20.80;45.40
35680;DHT22;21803;53.586;10.040;2023-04-24T10:37:48;20.80;45.30
35680;DHT22;21803;53.586;10.040;2023-04-24T10:40:18;20.70;45.30
35680;DHT22;21803;53.586;10.040;2023-04-24T10:42:47;20.80;45.30
35680;DHT22;21803;53.586;10.040;2023-04-24T10:45:21;20.80;45.30
35680;DHT22;21803;53.586;10.040;2023-04-24T10:47:58;20.80;45.40
35680;DHT22;21803;53.586;10.040;2023-04-24T10:50:25;20.80;45.30
35680;DHT22;21803;53.586;10.040;2023-04-24T10:52:51;20.80;45.20
35680;DHT22;21803;53.586;10.040;2023-04-24T10:55:42;20.80;45.30
35680;DHT22;21803;53.586;10.040;2023-04-24T10:58:08;20.80;45.80
35680;DHT22;21803;53.586;10.040;2023-04-24T11:00:37;20.80;45.10
35680;DHT22;21803;53.586;10.040;2023-04-24T11:03:05;20.80;45.10
35680;DHT22;21803;53.586;10.040;2023-04-24T11:05:52;20.80;45.10
35680;DHT22;21803;53.586;10.040;2023-04-24T11:13:24;20.80;45.10
35680;DHT22;21803;53.586;10.040;2023-04-24T11:18:39;20.80;45.10
35680;DHT22;21803;53.586;10.040;2023-04-24T11:21:12;20.80;45.10
35680;DHT22;21803;53.586;10.040;2023-04-24T11:23:39;20.80;45.10
35680;DHT22;21803;53.586;10.040;2023-04-24T11:26:13;20.80;45.10
35680;DHT22;21803;53.586;10.040;2023-04-24T11:28:49;20.80;45.10
35680;DHT22;21803;53.586;10.040;2023-04-24T11:31:37;20.80;45.10
35680;DHT22;21803;53.586;10.040;2023-04-24T11:34:11;20.80;45.10
35680;DHT22;21803;53.586;10.040;2023-04-24T11:36:37;20.80;45.00
35680;DHT22;21803;53.586;10.040;2023-04-24T11:39:03;20.80;45.00
35680;DHT22;21803;53.586;10.040;2023-04-24T11:41:29;20.80;45.10
35680;DHT22;21803;53.586;10.040;2023-04-24T11:43:56;20.80;45.00
35680;DHT22;21803;53.586;10.040;2023-04-24T11:46:22;20.80;44.90
35680;DHT22;21803;53.586;10.040;2023-04-24T11:48:48;20.80;45.00
35680;DHT22;21803;53.586;10.040;2023-04-24T11:51:14;20.80;45.00
35680;DHT22;21803;53.586;10.040;2023-04-24T11:53:40;20.80;45.00
35680;DHT22;21803;53.586;10.040;2023-04-24T11:56:05;20.80;45.00
35680;DHT22;21803;53.586;10.040;2023-04-24T11:58:35;20.80;45.00
35680;DHT22;21803;53.586;10.040;2023-04-24T12:01:01;20.80;45.00
35680;DHT22;21803;53.586;10.040;2023-04-24T12:03:26;20.70;44.90
35680;DHT22;21803;53.586;10.040;2023-04-24T12:05:52;20.80;45.00
35680;DHT22;21803;53.586;10.040;2023-04-24T12:08:28;20.80;44.90
35680;DHT22;21803;53.586;10.040;2023-04-24T12:10:54;20.80;44.90
35680;DHT22;21803;53.586;10.040;2023-04-24T12:13:19;20.80;44.90
35680;DHT22;21803;53.586;10.040;2023-04-24T12:15:45;20.80;44.90
35680;DHT22;21803;53.586;10.040;2023-04-24T12:18:14;20.80;44.90
35680;DHT22;21803;53.586;10.040;2023-04-24T12:20:42;20.80;44.90
35680;DHT22;21803;53.586;10.040;2023-04-24T12:23:07;20.80;44.90
35680;DHT22;21803;53.586;10.040;2023-04-24T12:25:33;20.80;44.80
35680;DHT22;21803;53.586;10.040;2023-04-24T12:30:29;20.80;45.40
35680;DHT22;21803;53.586;10.040;2023-04-24T12:32:57;20.80;44.80
35680;DHT22;21803;53.586;10.040;2023-04-24T12:35:25;20.80;44.80
35680;DHT22;21803;53.586;10.040;2023-04-24T12:37:51;20.80;44.70
35680;DHT22;21803;53.586;10.040;2023-04-24T12:40:18;20.80;44.70
35680;DHT22;21803;53.586;10.040;2023-04-24T12:42:50;20.80;44.70
35680;DHT22;21803;53.586;10.040;2023-04-24T12:45:17;20.80;44.70
35680;DHT22;21803;53.586;10.040;2023-04-24T12:47:44;20.80;44.70
35680;DHT22;21803;53.586;10.040;2023-04-24T12:50:12;20.80;44.70
35680;DHT22;21803;53.586;10.040;2023-04-24T12:52:38;20.80;44.70
35680;DHT22;21803;53.586;10.040;2023-04-24T12:55:05;20.80;44.70
35680;DHT22;21803;53.586;10.040;2023-04-24T12:57:33;20.80;44.60
35680;DHT22;21803;53.586;10.040;2023-04-24T12:59:59;20.80;44.60
35680;DHT22;21803;53.586;10.040;2023-04-24T13:02:27;20.80;44.60
35680;DHT22;21803;53.586;10.040;2023-04-24T13:04:54;20.80;44.60
35680;DHT22;21803;53.586;10.040;2023-04-24T13:07:20;20.80;44.60
35680;DHT22;21803;53.586;10.040;2023-04-24T13:09:48;20.80;44.50
35680;DHT22;21803;53.586;10.040;2023-04-24T13:12:13;20.80;44.60
35680;DHT22;21803;53.586;10.040;2023-04-24T13:14:39;20.80;44.60
35680;DHT22;21803;53.586;10.040;2023-04-24T13:17:05;20.80;44.60
35680;DHT22;21803;53.586;10.040;2023-04-24T13:19:39;20.80;44.50
35680;DHT22;21803;53.586;10.040;2023-04-24T13:22:05;20.80;44.60
35680;DHT22;21803;53.586;10.040;2023-04-24T13:24:31;20.80;44.60
35680;DHT22;21803;53.586;10.040;2023-04-24T13:26:57;20.80;44.50
35680;DHT22;21803;53.586;10.040;2023-04-24T13:29:23;20.80;44.50
35680;DHT22;21803;53.586;10.040;2023-04-24T13:31:53;20.80;44.50
35680;DHT22;21803;53.586;10.040;2023-04-24T13:34:25;20.80;44.50
35680;DHT22;21803;53.586;10.040;2023-04-24T13:36:55;20.90;44.60
35680;DHT22;21803;53.586;10.040;2023-04-24T13:39:22;20.80;44.60
35680;DHT22;21803;53.586;10.040;2023-04-24T13:41:47;20.80;44.50
35680;DHT22;21803;53.586;10.040;2023-04-24T13:44:14;20.80;44.50
35680;DHT22;21803;53.586;10.040;2023-04-24T13:46:40;20.80;44.50
35680;DHT22;21803;53.586;10.040;2023-04-24T13:49:06;20.80;44.50
35680;DHT22;21803;53.586;10.040;2023-04-24T13:51:32;20.80;44.50
35680;DHT22;21803;53.586;10.040;2023-04-24T13:53:58;20.80;44.50
35680;DHT22;21803;53.586;10.040;2023-04-24T13:56:24;20.80;44.50
35680;DHT22;21803;53.586;10.040;2023-04-24T13:58:51;20.80;44.50
35680;DHT22;21803;53.586;10.040;2023-04-24T14:01:16;20.80;44.50
35680;DHT22;21803;53.586;10.040;2023-04-24T14:03:42;20.80;44.50
35680;DHT22;21803;53.586;10.040;2023-04-24T14:06:08;20.80;44.50
35680;DHT22;21803;53.586;10.040;2023-04-24T14:08:34;20.80;44.50
35680;DHT22;21803;53.586;10.040;2023-04-24T14:11:00;20.80;44.50
35680;DHT22;21803;53.586;10.040;2023-04-24T14:13:26;20.80;44.50
35680;DHT22;21803;53.586;10.040;2023-04-24T14:15:51;20.80;44.50
35680;DHT22;21803;53.586;10.040;2023-04-24T14:18:18;20.80;44.50
35680;DHT22;21803;53.586;10.040;2023-04-24T14:20:44;20.80;44.50
35680;DHT22;21803;53.586;10.040;2023-04-24T14:23:09;20.80;44.40
35680;DHT22;21803;53.586;10.040;2023-04-24T14:25:35;20.80;44.40
35680;DHT22;21803;53.586;10.040;2023-04-24T14:28:00;20.80;44.40
35680;DHT22;21803;53.586;10.040;2023-04-24T14:30:26;20.80;44.40
35680;DHT22;21803;53.586;10.040;2023-04-24T14:32:51;20.80;44.40
35680;DHT22;21803;53.586;10.040;2023-04-24T14:35:17;20.80;44.40
35680;DHT22;21803;53.586;10.040;2023-04-24T14:37:42;20.80;44.40
35680;DHT22;21803;53.586;10.040;2023-04-24T14:40:09;20.80;44.40
35680;DHT22;21803;53.586;10.040;2023-04-24T14:42:34;20.80;44.40
35680;DHT22;21803;53.586;10.040;2023-04-24T14:45:01;20.80;44.40
35680;DHT22;21803;53.586;10.040;2023-04-24T14:47:27;20.80;44.40
35680;DHT22;21803;53.586;10.040;2023-04-24T14:49:53;20.80;44.40
35680;DHT22;21803;53.586;10.040;2023-04-24T14:52:19;20.80;44.40
35680;DHT22;21803;53.586;10.040;2023-04-24T14:54:45;20.80;44.40
35680;DHT22;21803;53.586;10.040;2023-04-24T14:57:10;20.80;44.40
35680;DHT22;21803;53.586;10.040;2023-04-24T14:59:36;20.80;44.40
35680;DHT22;21803;53.586;10.040;2023-04-24T15:02:01;20.80;44.40
35680;DHT22;21803;53.586;10.040;2023-04-24T15:04:28;20.80;44.50
35680;DHT22;21803;53.586;10.040;2023-04-24T15:06:54;20.80;44.40
35680;DHT22;21803;53.586;10.040;2023-04-24T15:09:20;20.80;44.50
35680;DHT22;21803;53.586;10.040;2023-04-24T15:11:47;20.80;44.50
35680;DHT22;21803;53.586;10.040;2023-04-24T15:14:12;20.80;44.50
35680;DHT22;21803;53.586;10.040;2023-04-24T15:16:39;20.80;44.50
35680;DHT22;21803;53.586;10.040;2023-04-24T15:19:05;20.80;44.60
35680;DHT22;21803;53.586;10.040;2023-04-24T15:21:30;20.80;44.50
35680;DHT22;21803;53.586;10.040;2023-04-24T15:23:57;20.80;44.60
35680;DHT22;21803;53.586;10.040;2023-04-24T15:26:23;20.80;44.60
35680;DHT22;21803;53.586;10.040;2023-04-24T15:28:49;20.80;44.60
35680;DHT22;21803;53.586;10.040;2023-04-24T15:31:14;20.70;44.60
35680;DHT22;21803;53.586;10.040;2023-04-24T15:33:41;20.70;44.60
35680;DHT22;21803;53.586;10.040;2023-04-24T15:36:06;20.80;44.70
35680;DHT22;21803;53.586;10.040;2023-04-24T15:38:32;20.80;44.70
35680;DHT22;21803;53.586;10.040;2023-04-24T15:40:57;20.70;44.60
35680;DHT22;21803;53.586;10.040;2023-04-24T15:43:23;20.70;44.70
35680;DHT22;21803;53.586;10.040;2023-04-24T15:45:51;20.70;44.70
35680;DHT22;21803;53.586;10.040;2023-04-24T15:48:18;20.70;44.70
35680;DHT22;21803;53.586;10.040;2023-04-24T15:50:43;20.70;44.70
35680;DHT22;21803;53.586;10.040;2023-04-24T15:53:09;20.80;44.70
35680;DHT22;21803;53.586;10.040;2023-04-24T15:55:34;20.80;44.70
35680;DHT22;21803;53.586;10.040;2023-04-24T15:58:01;20.80;44.70
35680;DHT22;21803;53.586;10.040;2023-04-24T16:00:27;20.80;44.70
35680;DHT22;21803;53.586;10.040;2023-04-24T16:03:01;20.70;44.70
35680;DHT22;21803;53.586;10.040;2023-04-24T16:05:27;20.80;44.70
35680;DHT22;21803;53.586;10.040;2023-04-24T16:07:52;20.70;44.70
35680;DHT22;21803;53.586;10.040;2023-04-24T16:10:18;20.70;44.70
35680;DHT22;21803;53.586;10.040;2023-04-24T16:12:43;20.70;44.80
35680;DHT22;21803;53.586;10.040;2023-04-24T16:15:09;20.70;44.80
35680;DHT22;21803;53.586;10.040;2023-04-24T16:17:35;20.80;44.80
35680;DHT22;21803;53.586;10.040;2023-04-24T16:20:02;23.50;46.20
35680;DHT22;21803;53.586;10.040;2023-04-24T16:22:28;22.60;45.70
35680;DHT22;21803;53.586;10.040;2023-04-24T16:24:54;20.80;44.80
35680;DHT22;21803;53.586;10.040;2023-04-24T16:27:21;20.70;44.80
35680;DHT22;21803;53.586;10.040;2023-04-24T16:29:46;20.70;44.80
35680;DHT22;21803;53.586;10.040;2023-04-24T16:32:12;20.70;44.80
35680;DHT22;21803;53.586;10.040;2023-04-24T16:34:37;20.80;44.80
35680;DHT22;21803;53.586;10.040;2023-04-24T16:37:03;20.70;44.80
35680;DHT22;21803;53.586;10.040;2023-04-24T16:39:29;20.80;44.90
35680;DHT22;21803;53.586;10.040;2023-04-24T16:41:55;20.80;44.80
35680;DHT22;21803;53.586;10.040;2023-04-24T16:44:21;20.70;44.80
35680;DHT22;21803;53.586;10.040;2023-04-24T16:46:46;20.80;44.80
35680;DHT22;21803;53.586;10.040;2023-04-24T16:49:12;20.80;44.80
35680;DHT22;21803;53.586;10.040;2023-04-24T16:51:38;20.80;44.80
35680;DHT22;21803;53.586;10.040;2023-04-24T16:54:03;20.80;44.80
35680;DHT22;21803;53.586;10.040;2023-04-24T16:56:29;20.80;44.80
35680;DHT22;21803;53.586;10.040;2023-04-24T16:58:54;20.80;44.80
35680;DHT22;21803;53.586;10.040;2023-04-24T17:01:20;20.70;44.80
35680;DHT22;21803;53.586;10.040;2023-04-24T17:03:46;20.70;44.80
35680;DHT22;21803;53.586;10.040;2023-04-24T17:06:11;20.70;44.80
35680;DHT22;21803;53.586;10.040;2023-04-24T17:08:37;20.80;44.90
35680;DHT22;21803;53.586;10.040;2023-04-24T17:11:03;20.70;44.80
35680;DHT22;21803;53.586;10.040;2023-04-24T17:13:28;20.70;44.80
35680;DHT22;21803;53.586;10.040;2023-04-24T17:15:54;20.70;44.80
35680;DHT22;21803;53.586;10.040;2023-04-24T17:18:19;20.80;44.80
35680;DHT22;21803;53.586;10.040;2023-04-24T17:20:45;20.70;44.80
35680;DHT22;21803;53.586;10.040;2023-04-24T17:23:10;20.70;44.80
35680;DHT22;21803;53.586;10.040;2023-04-24T17:25:38;20.70;44.80
35680;DHT22;21803;53.586;10.040;2023-04-24T17:28:14;20.70;44.80
35680;DHT22;21803;53.586;10.040;2023-04-24T17:30:40;20.70;44.80
35680;DHT22;21803;53.586;10.040;2023-04-24T17:33:06;20.70;44.80
35680;DHT22;21803;53.586;10.040;2023-04-24T17:35:31;20.70;44.70
35680;DHT22;21803;53.586;10.040;2023-04-24T17:37:57;20.70;44.80
35680;DHT22;21803;53.586;10.040;2023-04-24T17:40:22;20.70;44.80
35680;DHT22;21803;53.586;10.040;2023-04-24T17:42:48;20.70;44.80
35680;DHT22;21803;53.586;10.040;2023-04-24T17:45:13;20.70;44.80
35680;DHT22;21803;53.586;10.040;2023-04-24T17:47:39;20.70;44.80
35680;DHT22;21803;53.586;10.040;2023-04-24T17:50:05;20.70;44.80
35680;DHT22;21803;53.586;10.040;2023-04-24T17:52:31;20.70;44.80
35680;DHT22;21803;53.586;10.040;2023-04-24T17:54:56;20.70;44.80
35680;DHT22;21803;53.586;10.040;2023-04-24T17:57:22;20.70;44.80
35680;DHT22;21803;53.586;10.040;2023-04-24T17:59:47;20.70;44.80
35680;DHT22;21803;53.586;10.040;2023-04-24T18:02:13;20.70;44.80
35680;DHT22;21803;53.586;10.040;2023-04-24T18:04:38;20.70;44.80
35680;DHT22;21803;53.586;10.040;2023-04-24T18:07:07;20.70;44.80
35680;DHT22;21803;53.586;10.040;2023-04-24T18:09:32;20.70;44.80
35680;DHT22;21803;53.586;10.040;2023-04-24T18:11:58;20.70;44.80
35680;DHT22;21803;53.586;10.040;2023-04-24T18:14:23;20.70;44.80
35680;DHT22;21803;53.586;10.040;2023-04-24T18:16:50;20.70;44.80
35680;DHT22;21803;53.586;10.040;2023-04-24T18:19:15;20.70;45.40
35680;DHT22;21803;53.586;10.040;2023-04-24T18:21:41;20.70;44.80
35680;DHT22;21803;53.586;10.040;2023-04-24T18:24:06;20.70;44.80
35680;DHT22;21803;53.586;10.040;2023-04-24T18:26:32;20.70;44.80
35680;DHT22;21803;53.586;10.040;2023-04-24T18:28:57;20.70;44.80
35680;DHT22;21803;53.586;10.040;2023-04-24T18:31:23;20.70;44.80
35680;DHT22;21803;53.586;10.040;2023-04-24T18:33:48;20.70;45.40
35680;DHT22;21803;53.586;10.040;2023-04-24T18:36:14;20.70;44.80
35680;DHT22;21803;53.586;10.040;2023-04-24T18:38:39;20.80;44.80
35680;DHT22;21803;53.586;10.040;2023-04-24T18:41:05;20.70;44.80
35680;DHT22;21803;53.586;10.040;2023-04-24T18:43:31;20.70;44.80
35680;DHT22;21803;53.586;10.040;2023-04-24T18:45:56;20.70;44.80
35680;DHT22;21803;53.586;10.040;2023-04-24T18:48:22;20.70;44.80
35680;DHT22;21803;53.586;10.040;2023-04-24T18:50:47;20.70;44.80
35680;DHT22;21803;53.586;10.040;2023-04-24T18:53:13;20.70;44.80
35680;DHT22;21803;53.586;10.040;2023-04-24T18:55:41;20.70;44.80
35680;DHT22;21803;53.586;10.040;2023-04-24T18:58:06;20.70;44.80
35680;DHT22;21803;53.586;10.040;2023-04-24T19:00:32;20.70;44.80
35680;DHT22;21803;53.586;10.040;2023-04-24T19:02:57;20.70;44.80
35680;DHT22;21803;53.586;10.040;2023-04-24T19:05:23;20.70;44.80
35680;DHT22;21803;53.586;10.040;2023-04-24T19:07:48;20.70;44.80
35680;DHT22;21803;53.586;10.040;2023-04-24T19:10:14;20.70;44.80
35680;DHT22;21803;53.586;10.040;2023-04-24T19:12:40;20.70;44.80
35680;DHT22;21803;53.586;10.040;2023-04-24T19:15:07;20.70;44.80
35680;DHT22;21803;53.586;10.040;2023-04-24T19:17:36;20.70;44.80
35680;DHT22;21803;53.586;10.040;2023-04-24T19:20:01;20.70;44.80
35680;DHT22;21803;53.586;10.040;2023-04-24T19:22:27;20.70;44.80
35680;DHT22;21803;53.586;10.040;2023-04-24T19:24:54;20.70;44.80